createdAt,value
2022-08-26T00:01:56.666Z,16.90
2022-08-26T00:04:25.444Z,17.10
2022-08-26T00:06:56.454Z,17.20
2022-08-26T00:09:24.593Z,17.30
2022-08-26T00:11:52.000Z,17.60
2022-08-26T00:14:18.847Z,17.70
2022-08-26T00:16:47.852Z,17.70
2022-08-26T00:19:17.939Z,17.70
2022-08-26T00:21:46.330Z,17.70
2022-08-26T00:24:16.756Z,17.50
2022-08-26T00:26:44.174Z,17.40
2022-08-26T00:29:12.337Z,17.30
2022-08-26T00:31:40.780Z,17.30
2022-08-26T00:34:09.439Z,17.20
2022-08-26T00:36:37.089Z,17.10
2022-08-26T00:39:07.112Z,17.10
2022-08-26T00:41:35.718Z,17.10
2022-08-26T00:44:02.740Z,17.00
2022-08-26T00:46:33.696Z,16.90
2022-08-26T00:49:11.736Z,17.00
2022-08-26T00:51:49.295Z,16.90
2022-08-26T00:54:19.571Z,16.70
2022-08-26T00:56:50.457Z,16.60
2022-08-26T00:59:18.450Z,16.60
2022-08-26T01:01:46.275Z,16.60
2022-08-26T01:04:19.410Z,16.50
2022-08-26T01:06:48.582Z,16.40
2022-08-26T01:09:16.543Z,16.20
2022-08-26T01:11:44.614Z,16.20
2022-08-26T01:14:14.338Z,16.30
2022-08-26T01:16:42.381Z,16.30
2022-08-26T01:19:38.203Z,16.20
2022-08-26T01:22:16.672Z,16.30
2022-08-26T01:24:43.777Z,16.40
2022-08-26T01:27:14.543Z,16.30
2022-08-26T01:29:44.459Z,16.40
2022-08-26T01:32:16.096Z,16.60
2022-08-26T01:34:43.083Z,16.60
2022-08-26T01:37:16.015Z,16.60
2022-08-26T01:39:44.973Z,16.70
2022-08-26T01:42:15.049Z,16.50
2022-08-26T01:44:53.766Z,16.40
2022-08-26T01:47:23.866Z,16.30
2022-08-26T01:49:54.537Z,16.30
2022-08-26T01:52:28.123Z,16.20
2022-08-26T01:54:57.404Z,16.10
2022-08-26T01:57:25.789Z,16.10
2022-08-26T01:59:57.074Z,16.10
2022-08-26T02:02:24.673Z,16.10
2022-08-26T02:04:59.786Z,16.10
2022-08-26T02:07:27.336Z,16.10
2022-08-26T02:09:54.839Z,16.10
2022-08-26T02:12:22.270Z,15.90
2022-08-26T02:14:54.133Z,15.80
2022-08-26T02:17:26.131Z,15.70
2022-08-26T02:19:53.630Z,15.60
2022-08-26T02:22:22.444Z,15.50
2022-08-26T02:24:54.996Z,15.40
2022-08-26T02:27:28.058Z,15.40
2022-08-26T02:30:08.226Z,15.30
2022-08-26T02:32:35.230Z,15.40
2022-08-26T02:35:02.262Z,15.40
2022-08-26T02:37:32.738Z,15.50
2022-08-26T02:40:01.709Z,15.50
2022-08-26T02:42:29.967Z,15.40
2022-08-26T02:44:56.877Z,15.40
2022-08-26T02:47:25.300Z,15.40
2022-08-26T02:49:55.948Z,15.30
2022-08-26T02:52:23.207Z,15.30
2022-08-26T02:54:50.083Z,15.30
2022-08-26T02:57:17.500Z,15.30
2022-08-26T02:59:44.420Z,15.30
2022-08-26T03:02:12.341Z,15.30
2022-08-26T03:04:40.250Z,15.20
2022-08-26T03:07:07.669Z,15.20
2022-08-26T03:09:35.564Z,15.30
2022-08-26T03:12:02.587Z,15.20
2022-08-26T03:14:29.813Z,15.20
2022-08-26T03:16:56.606Z,15.20
2022-08-26T03:19:25.607Z,15.10
2022-08-26T03:21:57.916Z,15.10
2022-08-26T03:24:26.391Z,15.10
2022-08-26T03:26:53.301Z,15.10
2022-08-26T03:29:39.680Z,15.10
2022-08-26T03:32:06.783Z,15.10
2022-08-26T03:34:34.393Z,15.10
2022-08-26T03:37:01.766Z,15.10
2022-08-26T03:39:31.561Z,15.10
2022-08-26T03:42:00.088Z,15.10
2022-08-26T03:44:27.066Z,15.10
2022-08-26T03:46:54.628Z,15.10
2022-08-26T03:49:22.285Z,15.10
2022-08-26T03:51:50.089Z,15.10
2022-08-26T03:54:17.922Z,15.00
2022-08-26T03:56:46.579Z,15.00
2022-08-26T03:59:16.465Z,14.90
2022-08-26T04:01:43.442Z,14.90
2022-08-26T04:04:15.537Z,15.00
2022-08-26T04:06:44.705Z,15.00
2022-08-26T04:09:20.746Z,15.10
2022-08-26T04:11:50.490Z,15.10
2022-08-26T04:14:24.485Z,15.10
2022-08-26T04:16:52.631Z,14.90
2022-08-26T04:19:23.406Z,15.00
2022-08-26T04:21:53.099Z,15.00
2022-08-26T04:24:22.907Z,14.90
2022-08-26T04:26:50.387Z,14.80
2022-08-26T04:29:21.604Z,14.70
2022-08-26T04:31:49.189Z,14.60
2022-08-26T04:34:16.359Z,14.60
2022-08-26T04:36:44.261Z,14.70
2022-08-26T04:39:12.521Z,14.70
2022-08-26T04:41:42.807Z,14.70
2022-08-26T04:44:09.750Z,14.80
2022-08-26T04:46:43.792Z,14.90
2022-08-26T04:49:12.485Z,15.00
2022-08-26T04:51:40.107Z,15.00
2022-08-26T04:54:07.586Z,14.90
2022-08-26T04:56:39.946Z,14.90
2022-08-26T04:59:16.660Z,15.00
2022-08-26T05:01:48.576Z,15.00
2022-08-26T05:04:16.573Z,15.10
2022-08-26T05:06:46.798Z,15.20
2022-08-26T05:09:15.198Z,15.20
2022-08-26T05:11:42.400Z,15.20
2022-08-26T05:14:09.756Z,15.20
2022-08-26T05:16:37.735Z,15.20
2022-08-26T05:19:08.523Z,15.30
2022-08-26T05:21:36.721Z,15.40
2022-08-26T05:24:04.685Z,15.50
2022-08-26T05:26:32.022Z,15.90
2022-08-26T05:28:59.109Z,16.50
2022-08-26T05:31:30.217Z,17.90
2022-08-26T05:34:03.646Z,19.70
2022-08-26T05:36:33.533Z,21.10
2022-08-26T05:39:01.633Z,22.00
2022-08-26T05:41:34.647Z,22.80
2022-08-26T05:44:07.694Z,23.20
2022-08-26T05:46:37.306Z,23.50
2022-08-26T05:49:05.843Z,24.40
2022-08-26T05:51:33.152Z,24.60
2022-08-26T05:54:03.608Z,24.70
2022-08-26T05:56:30.780Z,25.20
2022-08-26T05:58:59.779Z,25.90
2022-08-26T06:01:28.335Z,25.80
2022-08-26T06:04:01.711Z,25.90
2022-08-26T06:06:34.608Z,26.00
2022-08-26T06:09:04.431Z,26.00
2022-08-26T06:11:32.578Z,26.30
2022-08-26T06:14:03.909Z,26.20
2022-08-26T06:16:33.483Z,26.10
2022-08-26T06:19:02.906Z,26.00
2022-08-26T06:21:35.935Z,26.10
2022-08-26T06:24:27.266Z,27.40
2022-08-26T06:27:01.627Z,27.90
2022-08-26T06:29:31.060Z,28.60
2022-08-26T06:31:58.741Z,28.60
2022-08-26T06:34:30.271Z,27.40
2022-08-26T06:37:01.305Z,26.00
2022-08-26T06:39:30.915Z,24.40
2022-08-26T06:41:59.024Z,23.80
2022-08-26T06:44:26.777Z,24.10
2022-08-26T06:46:53.744Z,25.70
2022-08-26T06:49:26.689Z,26.80
2022-08-26T06:51:54.876Z,28.10
2022-08-26T06:54:22.081Z,28.90
2022-08-26T06:56:49.579Z,28.80
2022-08-26T06:59:16.540Z,29.00
2022-08-26T07:01:45.073Z,29.60
2022-08-26T07:04:15.762Z,29.30
2022-08-26T07:06:49.018Z,29.30
2022-08-26T07:09:16.936Z,29.60
2022-08-26T07:11:44.853Z,30.70
2022-08-26T07:14:12.983Z,31.20
2022-08-26T07:16:41.311Z,31.30
2022-08-26T07:19:11.267Z,31.80
2022-08-26T07:21:41.571Z,31.90
2022-08-26T07:24:09.411Z,32.50
2022-08-26T07:26:39.142Z,32.80
2022-08-26T07:29:12.469Z,32.30
2022-08-26T07:31:42.371Z,31.90
2022-08-26T07:34:10.878Z,32.30
2022-08-26T07:36:37.765Z,32.50
2022-08-26T07:39:05.898Z,32.50
2022-08-26T07:41:33.438Z,33.50
2022-08-26T07:44:01.067Z,33.00
2022-08-26T07:46:30.128Z,32.70
2022-08-26T07:48:57.904Z,31.60
2022-08-26T07:51:26.136Z,30.00
2022-08-26T07:53:54.333Z,31.50
2022-08-26T07:56:23.557Z,32.50
2022-08-26T07:58:54.098Z,32.70
2022-08-26T08:01:23.816Z,33.00
2022-08-26T08:03:51.987Z,32.70
2022-08-26T08:06:27.403Z,33.90
2022-08-26T08:08:55.738Z,33.90
2022-08-26T08:11:22.899Z,32.40
2022-08-26T08:13:56.024Z,32.90
2022-08-26T08:16:32.375Z,31.70
2022-08-26T08:19:00.666Z,32.50
2022-08-26T08:21:30.287Z,33.50
2022-08-26T08:23:58.033Z,34.70
2022-08-26T08:26:26.137Z,35.50
2022-08-26T08:28:57.879Z,35.10
2022-08-26T08:31:55.978Z,34.80
2022-08-26T08:34:19.147Z,35.00
2022-08-26T08:36:48.624Z,34.70
2022-08-26T08:39:17.675Z,34.90
2022-08-26T08:42:08.976Z,36.40
2022-08-26T08:44:44.290Z,36.50
2022-08-26T08:47:33.928Z,34.50
2022-08-26T08:50:22.702Z,33.50
2022-08-26T08:52:56.594Z,33.10
2022-08-26T08:55:30.807Z,32.90
2022-08-26T08:58:13.400Z,32.90
2022-08-26T09:00:52.919Z,34.30
2022-08-26T09:04:09.739Z,35.30
2022-08-26T09:06:38.580Z,34.30
2022-08-26T09:09:08.873Z,33.90
2022-08-26T09:11:36.245Z,33.40
2022-08-26T09:14:03.187Z,32.50
2022-08-26T09:16:41.474Z,33.50
2022-08-26T09:19:20.388Z,33.50
2022-08-26T09:21:58.445Z,32.50
2022-08-26T09:24:28.612Z,32.60
2022-08-26T09:26:58.297Z,32.40
2022-08-26T09:29:26.558Z,32.30
2022-08-26T09:32:22.071Z,32.20
2022-08-26T09:34:57.348Z,33.10
2022-08-26T09:37:53.544Z,33.50
2022-08-26T09:40:35.507Z,34.20
2022-08-26T09:43:22.862Z,34.10
2022-08-26T09:46:15.080Z,33.90
2022-08-26T09:48:43.032Z,34.00
2022-08-26T09:51:26.308Z,33.10
2022-08-26T09:53:59.014Z,33.50
2022-08-26T09:56:26.079Z,33.60
2022-08-26T09:58:56.010Z,31.80
2022-08-26T10:01:55.766Z,32.70
2022-08-26T10:04:26.700Z,32.90
2022-08-26T10:06:57.913Z,32.30
2022-08-26T10:09:25.954Z,32.10
2022-08-26T10:12:02.496Z,33.10
2022-08-26T10:14:48.541Z,34.50
2022-08-26T10:17:40.359Z,35.00
2022-08-26T10:20:26.414Z,35.80
2022-08-26T10:22:57.841Z,35.30
2022-08-26T10:25:31.333Z,34.00
2022-08-26T10:28:12.701Z,33.00
2022-08-26T10:30:59.563Z,34.00
2022-08-26T10:33:26.471Z,33.00
2022-08-26T10:36:30.295Z,34.20
2022-08-26T10:39:01.810Z,34.50
2022-08-26T10:41:36.254Z,33.40
2022-08-26T10:44:05.995Z,33.90
2022-08-26T10:46:39.780Z,34.00
2022-08-26T10:49:15.404Z,33.80
2022-08-26T10:52:21.707Z,33.50
2022-08-26T10:55:20.558Z,33.60
2022-08-26T10:57:59.166Z,32.90
2022-08-26T11:00:58.345Z,33.60
2022-08-26T11:03:48.379Z,33.50
2022-08-26T11:06:23.325Z,33.60
2022-08-26T11:08:59.587Z,34.30
2022-08-26T11:11:48.226Z,34.40
2022-08-26T11:14:28.383Z,34.30
2022-08-26T11:16:58.627Z,33.10
2022-08-26T11:19:58.852Z,32.90
2022-08-26T11:22:34.975Z,32.80
2022-08-26T11:25:11.597Z,31.80
2022-08-26T11:27:40.060Z,31.20
2022-08-26T11:30:28.402Z,30.80
2022-08-26T11:32:57.695Z,30.80
2022-08-26T11:35:24.626Z,30.80
2022-08-26T11:37:57.360Z,30.50
2022-08-26T11:40:38.470Z,30.70
2022-08-26T11:43:21.528Z,30.70
2022-08-26T11:46:02.654Z,30.30
2022-08-26T11:48:39.161Z,29.30
2022-08-26T11:51:13.398Z,28.40
2022-08-26T11:53:44.646Z,27.40
2022-08-26T11:56:34.578Z,26.80
2022-08-26T11:59:15.638Z,26.40
2022-08-26T12:01:44.992Z,26.50
2022-08-26T12:04:34.033Z,26.40
2022-08-26T12:07:02.312Z,26.40
2022-08-26T12:09:35.908Z,26.00
2022-08-26T12:12:15.994Z,26.10
2022-08-26T12:14:43.605Z,25.70
2022-08-26T12:17:25.908Z,25.60
2022-08-26T12:19:52.687Z,25.50
2022-08-26T12:22:23.835Z,25.50
2022-08-26T12:24:58.670Z,25.60
2022-08-26T12:27:28.723Z,25.50
2022-08-26T12:30:09.572Z,25.60
2022-08-26T12:32:57.322Z,25.50
2022-08-26T12:35:24.853Z,25.40
2022-08-26T12:37:53.944Z,25.60
2022-08-26T12:40:40.971Z,25.70
2022-08-26T12:43:09.771Z,25.90
2022-08-26T12:45:43.894Z,25.90
2022-08-26T12:48:25.769Z,25.90
2022-08-26T12:50:53.261Z,26.10
2022-08-26T12:53:29.097Z,26.10
2022-08-26T12:55:58.841Z,26.30
2022-08-26T12:58:34.745Z,26.40
2022-08-26T13:01:04.474Z,26.20
2022-08-26T13:03:34.289Z,25.90
2022-08-26T13:06:28.285Z,25.90
2022-08-26T13:09:00.059Z,25.90
2022-08-26T13:11:40.575Z,26.00
2022-08-26T13:14:21.058Z,26.20
2022-08-26T13:16:50.991Z,26.40
2022-08-26T13:19:25.996Z,26.10
2022-08-26T13:21:55.826Z,26.20
2022-08-26T13:24:35.145Z,26.50
2022-08-26T13:27:02.853Z,26.70
2022-08-26T13:29:29.975Z,26.70
2022-08-26T13:31:58.635Z,26.80
2022-08-26T13:34:26.150Z,26.80
2022-08-26T13:36:54.660Z,26.10
2022-08-26T13:39:22.367Z,26.50
2022-08-26T13:41:49.451Z,26.30
2022-08-26T13:44:16.587Z,26.30
2022-08-26T13:49:15.849Z,26.50
2022-08-26T13:51:42.701Z,26.60
2022-08-26T13:54:09.669Z,26.80
2022-08-26T13:56:37.499Z,26.40
2022-08-26T13:59:05.738Z,26.40
2022-08-26T14:01:35.663Z,26.50
2022-08-26T14:04:03.158Z,26.30
2022-08-26T14:06:30.172Z,26.10
2022-08-26T14:08:57.328Z,26.00
2022-08-26T14:11:25.170Z,25.90
2022-08-26T14:13:52.391Z,25.80
2022-08-26T14:16:29.145Z,25.70
2022-08-26T14:18:56.165Z,25.90
2022-08-26T14:21:24.769Z,25.90
2022-08-26T14:23:52.539Z,25.90
2022-08-26T14:26:28.890Z,26.00
2022-08-26T14:28:58.169Z,26.10
2022-08-26T14:31:26.902Z,26.20
2022-08-26T14:33:55.019Z,26.40
2022-08-26T14:36:34.071Z,26.60
2022-08-26T14:39:12.515Z,26.50
2022-08-26T14:41:53.771Z,26.60
2022-08-26T14:44:23.708Z,26.50
2022-08-26T14:46:53.115Z,26.30
2022-08-26T14:49:22.196Z,26.10
2022-08-26T14:51:49.817Z,26.20
2022-08-26T14:54:18.241Z,26.20
2022-08-26T14:56:47.400Z,26.00
2022-08-26T14:59:17.455Z,25.90
2022-08-26T15:01:45.408Z,26.00
2022-08-26T15:04:12.677Z,26.10
2022-08-26T15:06:40.015Z,26.10
2022-08-26T15:09:07.332Z,26.10
2022-08-26T15:11:34.418Z,25.90
2022-08-26T15:14:02.615Z,25.60
2022-08-26T15:16:30.505Z,25.40
2022-08-26T15:18:57.972Z,25.30
2022-08-26T15:21:26.240Z,25.40
2022-08-26T15:23:54.124Z,25.30
2022-08-26T15:26:22.391Z,25.10
2022-08-26T15:28:49.938Z,25.10
2022-08-26T15:31:17.489Z,24.70
2022-08-26T15:33:44.904Z,24.70
2022-08-26T15:36:12.096Z,24.10
2022-08-26T15:38:41.332Z,23.70
2022-08-26T15:41:09.358Z,23.40
2022-08-26T15:43:37.724Z,23.20
2022-08-26T15:46:04.810Z,23.10
2022-08-26T15:48:31.847Z,22.90
2022-08-26T15:51:01.463Z,22.90
2022-08-26T15:53:31.313Z,22.80
2022-08-26T15:55:59.593Z,22.70
2022-08-26T15:58:28.368Z,22.60
2022-08-26T16:00:56.326Z,22.40
2022-08-26T16:03:23.487Z,22.40
2022-08-26T16:05:50.590Z,22.20
2022-08-26T16:08:17.802Z,22.00
2022-08-26T16:10:50.403Z,21.90
2022-08-26T16:13:19.679Z,21.80
2022-08-26T16:15:47.834Z,21.50
2022-08-26T16:18:15.674Z,21.40
2022-08-26T16:21:02.852Z,21.30
2022-08-26T16:23:39.208Z,21.20
2022-08-26T16:26:19.025Z,21.10
2022-08-26T16:28:46.254Z,21.10
2022-08-26T16:31:13.947Z,21.00
2022-08-26T16:33:40.813Z,21.00
2022-08-26T16:36:08.981Z,21.00
2022-08-26T16:38:37.645Z,21.00
2022-08-26T16:41:04.918Z,20.90
2022-08-26T16:43:31.791Z,20.80
2022-08-26T16:45:59.112Z,20.80
2022-08-26T16:48:27.833Z,20.80
2022-08-26T16:50:55.590Z,20.80
2022-08-26T16:53:23.525Z,20.70
2022-08-26T16:55:51.292Z,20.70
2022-08-26T16:58:21.976Z,20.60
2022-08-26T17:00:49.709Z,20.60
2022-08-26T17:03:16.972Z,20.60
2022-08-26T17:05:44.479Z,20.60
2022-08-26T17:08:14.562Z,20.50
2022-08-26T17:10:54.881Z,20.40
2022-08-26T17:13:34.834Z,20.30
2022-08-26T17:16:04.933Z,20.30
2022-08-26T17:18:33.372Z,20.20
2022-08-26T17:21:03.121Z,20.10
2022-08-26T17:23:30.430Z,20.00
2022-08-26T17:25:58.297Z,20.00
2022-08-26T17:28:25.495Z,20.00
2022-08-26T17:30:52.559Z,19.80
2022-08-26T17:33:24.405Z,19.80
2022-08-26T17:35:52.949Z,19.80
2022-08-26T17:38:21.179Z,19.80
2022-08-26T17:40:48.237Z,19.90
2022-08-26T17:43:15.527Z,19.90
2022-08-26T17:45:43.387Z,19.90
2022-08-26T17:48:11.191Z,20.00
2022-08-26T17:50:43.141Z,20.10
2022-08-26T17:53:18.804Z,20.00
2022-08-26T17:55:47.419Z,20.00
2022-08-26T17:58:16.003Z,19.90
2022-08-26T18:00:48.717Z,19.90
2022-08-26T18:03:16.320Z,19.90
2022-08-26T18:05:47.794Z,19.80
2022-08-26T18:08:14.743Z,19.80
2022-08-26T18:10:42.480Z,19.70
2022-08-26T18:13:09.524Z,19.60
2022-08-26T18:15:39.876Z,19.50
2022-08-26T18:18:06.814Z,19.60
2022-08-26T18:20:34.119Z,19.60
2022-08-26T18:23:00.971Z,19.70
2022-08-26T18:25:27.874Z,19.60
2022-08-26T18:27:54.743Z,19.60
2022-08-26T18:30:22.570Z,19.60
2022-08-26T18:32:50.820Z,19.70
2022-08-26T18:35:18.475Z,19.70
2022-08-26T18:37:45.825Z,19.60
2022-08-26T18:40:14.205Z,19.60
2022-08-26T18:42:41.460Z,19.60
2022-08-26T18:45:09.597Z,19.50
2022-08-26T18:47:42.827Z,19.50
2022-08-26T18:50:10.883Z,19.50
2022-08-26T18:52:38.872Z,19.50
2022-08-26T18:55:06.742Z,19.50
2022-08-26T18:57:33.724Z,19.40
2022-08-26T19:00:01.861Z,19.40
2022-08-26T19:02:28.964Z,19.30
2022-08-26T19:04:57.442Z,19.20
2022-08-26T19:07:24.543Z,19.10
2022-08-26T19:09:53.798Z,19.00
2022-08-26T19:12:21.276Z,19.00
2022-08-26T19:14:48.170Z,18.90
2022-08-26T19:17:15.368Z,18.90
2022-08-26T19:19:42.183Z,18.90
2022-08-26T19:22:09.072Z,18.80
2022-08-26T19:24:35.894Z,18.80
2022-08-26T19:27:03.619Z,18.70
2022-08-26T19:29:34.399Z,18.60
2022-08-26T19:32:03.025Z,18.60
2022-08-26T19:34:30.153Z,18.60
2022-08-26T19:36:58.421Z,18.50
2022-08-26T19:39:26.114Z,18.40
2022-08-26T19:41:53.451Z,18.40
2022-08-26T19:44:40.893Z,18.40
2022-08-26T19:47:10.008Z,18.30
2022-08-26T19:49:38.574Z,18.30
2022-08-26T19:52:06.071Z,18.20
2022-08-26T19:54:34.131Z,18.10
2022-08-26T19:57:01.596Z,18.10
2022-08-26T19:59:29.220Z,18.10
2022-08-26T20:02:01.128Z,18.00
2022-08-26T20:04:30.255Z,18.00
2022-08-26T20:06:57.876Z,18.00
2022-08-26T20:09:28.446Z,18.10
2022-08-26T20:11:56.847Z,18.00
2022-08-26T20:14:25.084Z,18.00
2022-08-26T20:16:52.188Z,18.00
2022-08-26T20:19:38.011Z,18.00
2022-08-26T20:22:05.689Z,17.90
2022-08-26T20:24:33.024Z,17.90
2022-08-26T20:27:03.224Z,18.00
2022-08-26T20:29:32.307Z,18.00
2022-08-26T20:31:59.245Z,18.00
2022-08-26T20:34:26.786Z,18.00
2022-08-26T20:36:53.624Z,18.00
2022-08-26T20:39:21.365Z,18.00
2022-08-26T20:41:48.956Z,18.10
2022-08-26T20:44:17.593Z,18.00
2022-08-26T20:46:45.006Z,18.00
2022-08-26T20:49:13.295Z,18.10
2022-08-26T20:51:42.783Z,18.10
2022-08-26T20:54:12.268Z,18.10
2022-08-26T20:56:39.989Z,18.10
2022-08-26T20:59:07.869Z,18.00
2022-08-26T21:01:37.410Z,18.00
2022-08-26T21:04:13.967Z,18.10
2022-08-26T21:06:42.258Z,18.10
2022-08-26T21:09:14.660Z,18.10
2022-08-26T21:11:44.287Z,18.10
2022-08-26T21:14:16.596Z,18.10
2022-08-26T21:16:45.295Z,18.10
2022-08-26T21:19:14.538Z,18.10
2022-08-26T21:21:42.261Z,18.10
2022-08-26T21:24:10.239Z,18.10
2022-08-26T21:26:37.215Z,18.00
2022-08-26T21:29:04.300Z,18.00
2022-08-26T21:31:32.032Z,18.00
2022-08-26T21:33:59.632Z,18.00
2022-08-26T21:36:27.000Z,18.00
2022-08-26T21:38:59.891Z,18.00
2022-08-26T21:41:27.561Z,18.20
2022-08-26T21:43:58.929Z,18.20
2022-08-26T21:46:29.048Z,18.10
2022-08-26T21:49:01.501Z,18.20
2022-08-26T21:51:31.529Z,18.10
2022-08-26T21:53:59.925Z,18.10
2022-08-26T21:56:29.977Z,18.00
2022-08-26T21:58:57.338Z,18.00
2022-08-26T22:01:26.590Z,18.00
2022-08-26T22:03:54.461Z,17.90
2022-08-26T22:06:24.379Z,18.00
2022-08-26T22:08:52.240Z,17.90
2022-08-26T22:11:19.852Z,18.00
2022-08-26T22:13:48.676Z,18.00
2022-08-26T22:16:16.139Z,17.90
2022-08-26T22:18:44.192Z,17.90
2022-08-26T22:21:17.581Z,17.80
2022-08-26T22:23:45.268Z,17.80
2022-08-26T22:26:14.282Z,17.80
2022-08-26T22:28:41.298Z,17.70
2022-08-26T22:31:11.295Z,17.80
2022-08-26T22:33:39.345Z,17.70
2022-08-26T22:36:06.956Z,17.70
2022-08-26T22:38:34.632Z,17.70
2022-08-26T22:41:03.421Z,17.60
2022-08-26T22:43:34.017Z,17.60
2022-08-26T22:46:00.829Z,17.60
2022-08-26T22:48:27.807Z,17.70
2022-08-26T22:51:00.031Z,17.70
2022-08-26T22:53:27.363Z,17.70
2022-08-26T22:55:54.516Z,17.80
2022-08-26T22:58:28.046Z,17.90
2022-08-26T23:00:59.457Z,18.00
2022-08-26T23:03:27.116Z,18.00
2022-08-26T23:05:55.336Z,17.90
2022-08-26T23:08:23.552Z,17.90
2022-08-26T23:10:51.269Z,17.90
2022-08-26T23:13:19.345Z,17.90
2022-08-26T23:15:46.542Z,18.00
2022-08-26T23:18:15.046Z,18.00
2022-08-26T23:20:42.528Z,18.10
2022-08-26T23:23:09.856Z,18.10
2022-08-26T23:25:36.815Z,18.10
2022-08-26T23:28:04.058Z,18.10
2022-08-26T23:30:34.453Z,18.10
2022-08-26T23:33:01.412Z,18.00
2022-08-26T23:35:28.695Z,17.90
2022-08-26T23:37:55.731Z,18.00
2022-08-26T23:40:34.328Z,17.90
2022-08-26T23:43:03.607Z,17.90
2022-08-26T23:45:31.757Z,17.80
2022-08-26T23:47:59.139Z,17.80
2022-08-26T23:50:48.377Z,17.70
2022-08-26T23:53:20.042Z,17.60
2022-08-26T23:55:49.382Z,17.40
2022-08-26T23:58:17.619Z,17.50
